sensor_id;sensor_type;location;lat;lon;timestamp;pressure;altitude;pressure_sealevel;temperature;humidity
61384;BME280;63511;49.346;8.798;2023-11-21T00:01:27;99582.06;;;12.07;100.00
61384;BME280;63511;49.346;8.798;2023-11-21T00:03:55;99585.94;;;12.17;100.00
61384;BME280;63511;49.346;8.798;2023-11-21T00:06:21;99562.53;;;11.71;100.00
61384;BME280;63511;49.346;8.798;2023-11-21T00:08:48;99574.47;;;11.89;100.00
61384;BME280;63511;49.346;8.798;2023-11-21T00:11:14;99563.72;;;11.77;100.00
61384;BME280;63511;49.346;8.798;2023-11-21T00:13:40;99558.28;;;11.54;100.00
61384;BME280;63511;49.346;8.798;2023-11-21T00:16:07;99579.88;;;11.97;100.00
61384;BME280;63511;49.346;8.798;2023-11-21T00:18:34;99562.28;;;11.82;100.00
61384;BME280;63511;49.346;8.798;2023-11-21T00:21:02;99565.56;;;11.80;100.00
61384;BME280;63511;49.346;8.798;2023-11-21T00:23:29;99575.72;;;11.81;100.00
61384;BME280;63511;49.346;8.798;2023-11-21T00:25:55;99567.28;;;11.65;100.00
61384;BME280;63511;49.346;8.798;2023-11-21T00:28:21;99586.00;;;11.68;100.00
61384;BME280;63511;49.346;8.798;2023-11-21T00:30:48;99590.31;;;12.03;100.00
61384;BME280;63511;49.346;8.798;2023-11-21T00:33:14;99577.84;;;11.90;100.00
61384;BME280;63511;49.346;8.798;2023-11-21T00:35:41;99574.94;;;11.82;100.00
61384;BME280;63511;49.346;8.798;2023-11-21T00:38:08;99581.88;;;11.86;100.00
61384;BME280;63511;49.346;8.798;2023-11-21T00:40:35;99583.59;;;12.04;100.00
61384;BME280;63511;49.346;8.798;2023-11-21T00:43:02;99577.75;;;12.05;100.00
61384;BME280;63511;49.346;8.798;2023-11-21T00:45:30;99567.22;;;11.97;100.00
61384;BME280;63511;49.346;8.798;2023-11-21T00:47:56;99557.22;;;11.66;100.00
61384;BME280;63511;49.346;8.798;2023-11-21T00:50:23;99570.66;;;11.81;100.00
61384;BME280;63511;49.346;8.798;2023-11-21T00:52:49;99561.06;;;11.74;100.00
61384;BME280;63511;49.346;8.798;2023-11-21T00:55:18;99574.19;;;12.19;100.00
61384;BME280;63511;49.346;8.798;2023-11-21T00:57:44;99564.91;;;11.84;100.00
61384;BME280;63511;49.346;8.798;2023-11-21T01:00:11;99552.59;;;11.74;100.00
61384;BME280;63511;49.346;8.798;2023-11-21T01:02:39;99558.31;;;11.71;100.00
61384;BME280;63511;49.346;8.798;2023-11-21T01:05:06;99561.81;;;11.89;100.00
61384;BME280;63511;49.346;8.798;2023-11-21T01:07:33;99567.81;;;11.91;100.00
61384;BME280;63511;49.346;8.798;2023-11-21T01:10:01;99555.47;;;11.81;100.00
61384;BME280;63511;49.346;8.798;2023-11-21T01:12:29;99568.06;;;11.80;100.00
61384;BME280;63511;49.346;8.798;2023-11-21T01:14:55;99577.22;;;11.94;100.00
61384;BME280;63511;49.346;8.798;2023-11-21T01:17:22;99565.00;;;11.53;100.00
61384;BME280;63511;49.346;8.798;2023-11-21T01:19:49;99578.34;;;11.83;100.00
61384;BME280;63511;49.346;8.798;2023-11-21T01:22:15;99578.22;;;11.98;100.00
61384;BME280;63511;49.346;8.798;2023-11-21T01:24:43;99581.75;;;12.17;100.00
61384;BME280;63511;49.346;8.798;2023-11-21T01:27:09;99578.75;;;12.08;100.00
61384;BME280;63511;49.346;8.798;2023-11-21T01:29:37;99575.28;;;12.06;100.00
61384;BME280;63511;49.346;8.798;2023-11-21T01:32:03;99573.16;;;11.98;100.00
61384;BME280;63511;49.346;8.798;2023-11-21T01:34:33;99582.06;;;12.07;100.00
61384;BME280;63511;49.346;8.798;2023-11-21T01:36:59;99575.63;;;11.96;100.00
61384;BME280;63511;49.346;8.798;2023-11-21T01:39:26;99591.22;;;12.21;100.00
61384;BME280;63511;49.346;8.798;2023-11-21T01:41:52;99579.97;;;11.99;100.00
61384;BME280;63511;49.346;8.798;2023-11-21T01:44:19;99577.28;;;11.96;100.00
61384;BME280;63511;49.346;8.798;2023-11-21T01:46:47;99592.66;;;12.16;100.00
61384;BME280;63511;49.346;8.798;2023-11-21T01:49:14;99589.09;;;12.13;100.00
61384;BME280;63511;49.346;8.798;2023-11-21T01:51:41;99582.16;;;12.09;100.00
61384;BME280;63511;49.346;8.798;2023-11-21T01:54:08;99577.09;;;12.09;100.00
61384;BME280;63511;49.346;8.798;2023-11-21T01:56:36;99569.47;;;11.91;100.00
61384;BME280;63511;49.346;8.798;2023-11-21T01:59:04;99585.63;;;12.11;100.00
61384;BME280;63511;49.346;8.798;2023-11-21T02:01:32;99585.13;;;12.18;100.00
61384;BME280;63511;49.346;8.798;2023-11-21T02:04:00;99562.91;;;11.95;100.00
61384;BME280;63511;49.346;8.798;2023-11-21T02:06:26;99576.06;;;12.05;100.00
61384;BME280;63511;49.346;8.798;2023-11-21T02:08:56;99562.50;;;11.87;100.00
61384;BME280;63511;49.346;8.798;2023-11-21T02:11:22;99591.75;;;12.32;100.00
61384;BME280;63511;49.346;8.798;2023-11-21T02:13:49;99572.34;;;12.32;100.00
61384;BME280;63511;49.346;8.798;2023-11-21T02:16:17;99584.06;;;12.48;100.00
61384;BME280;63511;49.346;8.798;2023-11-21T02:18:43;99571.81;;;12.40;100.00
61384;BME280;63511;49.346;8.798;2023-11-21T02:21:11;99564.34;;;12.07;100.00
61384;BME280;63511;49.346;8.798;2023-11-21T02:23:39;99581.16;;;12.23;100.00
61384;BME280;63511;49.346;8.798;2023-11-21T02:26:09;99572.09;;;12.28;100.00
61384;BME280;63511;49.346;8.798;2023-11-21T02:28:35;99583.22;;;12.48;100.00
61384;BME280;63511;49.346;8.798;2023-11-21T02:31:03;99556.84;;;12.09;100.00
61384;BME280;63511;49.346;8.798;2023-11-21T02:33:30;99559.59;;;11.96;100.00
61384;BME280;63511;49.346;8.798;2023-11-21T02:35:58;99572.53;;;12.19;100.00
61384;BME280;63511;49.346;8.798;2023-11-21T02:38:25;99559.16;;;12.04;100.00
61384;BME280;63511;49.346;8.798;2023-11-21T02:40:53;99567.91;;;12.11;100.00
61384;BME280;63511;49.346;8.798;2023-11-21T02:43:19;99577.25;;;12.12;100.00
61384;BME280;63511;49.346;8.798;2023-11-21T02:45:46;99549.50;;;11.79;100.00
61384;BME280;63511;49.346;8.798;2023-11-21T02:48:12;99565.22;;;11.90;100.00
61384;BME280;63511;49.346;8.798;2023-11-21T02:50:38;99570.63;;;11.98;100.00
61384;BME280;63511;49.346;8.798;2023-11-21T02:53:05;99565.97;;;12.23;100.00
61384;BME280;63511;49.346;8.798;2023-11-21T02:55:31;99576.22;;;12.44;100.00
61384;BME280;63511;49.346;8.798;2023-11-21T02:58:02;99568.38;;;12.38;100.00
61384;BME280;63511;49.346;8.798;2023-11-21T03:00:29;99562.28;;;12.16;100.00
61384;BME280;63511;49.346;8.798;2023-11-21T03:02:56;99561.34;;;12.14;100.00
61384;BME280;63511;49.346;8.798;2023-11-21T03:05:22;99547.81;;;11.96;100.00
61384;BME280;63511;49.346;8.798;2023-11-21T03:07:48;99577.81;;;12.24;100.00
61384;BME280;63511;49.346;8.798;2023-11-21T03:10:15;99567.25;;;12.15;100.00
61384;BME280;63511;49.346;8.798;2023-11-21T03:12:41;99553.13;;;11.84;100.00
61384;BME280;63511;49.346;8.798;2023-11-21T03:15:11;99557.31;;;11.84;100.00
61384;BME280;63511;49.346;8.798;2023-11-21T03:17:38;99547.28;;;11.85;100.00
61384;BME280;63511;49.346;8.798;2023-11-21T03:20:05;99543.47;;;11.77;100.00
61384;BME280;63511;49.346;8.798;2023-11-21T03:22:35;99547.75;;;11.78;100.00
61384;BME280;63511;49.346;8.798;2023-11-21T03:25:02;99558.72;;;11.95;100.00
61384;BME280;63511;49.346;8.798;2023-11-21T03:27:29;99577.47;;;12.16;100.00
61384;BME280;63511;49.346;8.798;2023-11-21T03:29:56;99561.59;;;12.03;100.00
61384;BME280;63511;49.346;8.798;2023-11-21T03:32:23;99572.47;;;12.18;100.00
61384;BME280;63511;49.346;8.798;2023-11-21T03:34:53;99561.13;;;12.10;100.00
61384;BME280;63511;49.346;8.798;2023-11-21T03:37:20;99558.94;;;12.00;100.00
61384;BME280;63511;49.346;8.798;2023-11-21T03:39:47;99552.94;;;11.81;100.00
61384;BME280;63511;49.346;8.798;2023-11-21T03:42:13;99561.38;;;11.80;100.00
61384;BME280;63511;49.346;8.798;2023-11-21T03:44:39;99575.59;;;12.12;100.00
61384;BME280;63511;49.346;8.798;2023-11-21T03:47:06;99564.69;;;11.97;100.00
61384;BME280;63511;49.346;8.798;2023-11-21T03:49:33;99555.00;;;11.88;100.00
61384;BME280;63511;49.346;8.798;2023-11-21T03:52:00;99585.06;;;12.34;100.00
61384;BME280;63511;49.346;8.798;2023-11-21T03:54:27;99566.75;;;12.04;100.00
61384;BME280;63511;49.346;8.798;2023-11-21T03:56:54;99578.34;;;12.34;100.00
61384;BME280;63511;49.346;8.798;2023-11-21T03:59:21;99567.19;;;12.13;100.00
61384;BME280;63511;49.346;8.798;2023-11-21T04:01:49;99580.72;;;12.14;100.00
61384;BME280;63511;49.346;8.798;2023-11-21T04:04:15;99567.41;;;12.00;100.00
61384;BME280;63511;49.346;8.798;2023-11-21T04:06:43;99573.25;;;11.99;100.00
61384;BME280;63511;49.346;8.798;2023-11-21T04:09:10;99564.34;;;11.89;100.00
61384;BME280;63511;49.346;8.798;2023-11-21T04:11:36;99577.34;;;11.97;100.00
61384;BME280;63511;49.346;8.798;2023-11-21T04:14:03;99574.75;;;11.96;100.00
61384;BME280;63511;49.346;8.798;2023-11-21T04:16:29;99590.13;;;12.16;100.00
61384;BME280;63511;49.346;8.798;2023-11-21T04:18:55;99580.47;;;11.91;100.00
61384;BME280;63511;49.346;8.798;2023-11-21T04:21:22;99590.00;;;11.97;100.00
61384;BME280;63511;49.346;8.798;2023-11-21T04:23:50;99603.31;;;12.27;100.00
61384;BME280;63511;49.346;8.798;2023-11-21T04:26:17;99595.63;;;12.25;100.00
61384;BME280;63511;49.346;8.798;2023-11-21T04:28:43;99604.22;;;12.29;100.00
61384;BME280;63511;49.346;8.798;2023-11-21T04:31:10;99603.44;;;12.30;100.00
61384;BME280;63511;49.346;8.798;2023-11-21T04:33:36;99601.41;;;12.23;100.00
61384;BME280;63511;49.346;8.798;2023-11-21T04:36:02;99599.81;;;12.25;100.00
61384;BME280;63511;49.346;8.798;2023-11-21T04:38:32;99592.91;;;12.05;100.00
61384;BME280;63511;49.346;8.798;2023-11-21T04:41:00;99613.59;;;12.14;100.00
61384;BME280;63511;49.346;8.798;2023-11-21T04:43:27;99596.34;;;11.89;100.00
61384;BME280;63511;49.346;8.798;2023-11-21T04:45:54;99601.81;;;11.97;100.00
61384;BME280;63511;49.346;8.798;2023-11-21T04:48:20;99603.84;;;12.04;100.00
61384;BME280;63511;49.346;8.798;2023-11-21T04:50:47;99617.47;;;12.23;100.00
61384;BME280;63511;49.346;8.798;2023-11-21T04:53:13;99595.00;;;11.96;100.00
61384;BME280;63511;49.346;8.798;2023-11-21T04:55:40;99604.56;;;12.01;100.00
61384;BME280;63511;49.346;8.798;2023-11-21T04:58:08;99622.47;;;12.22;100.00
61384;BME280;63511;49.346;8.798;2023-11-21T05:00:34;99605.34;;;12.00;100.00
61384;BME280;63511;49.346;8.798;2023-11-21T05:03:01;99630.97;;;12.06;100.00
61384;BME280;63511;49.346;8.798;2023-11-21T05:05:28;99609.69;;;11.86;100.00
61384;BME280;63511;49.346;8.798;2023-11-21T05:07:55;99618.56;;;11.95;100.00
61384;BME280;63511;49.346;8.798;2023-11-21T05:10:21;99616.03;;;11.95;100.00
61384;BME280;63511;49.346;8.798;2023-11-21T05:12:48;99625.97;;;12.08;100.00
61384;BME280;63511;49.346;8.798;2023-11-21T05:15:16;99642.19;;;12.29;100.00
61384;BME280;63511;49.346;8.798;2023-11-21T05:17:43;99628.88;;;12.15;100.00
61384;BME280;63511;49.346;8.798;2023-11-21T05:20:10;99629.19;;;12.21;100.00
61384;BME280;63511;49.346;8.798;2023-11-21T05:22:39;99624.88;;;12.03;100.00
61384;BME280;63511;49.346;8.798;2023-11-21T05:25:07;99629.00;;;12.01;100.00
61384;BME280;63511;49.346;8.798;2023-11-21T05:27:34;99652.38;;;12.47;100.00
61384;BME280;63511;49.346;8.798;2023-11-21T05:30:01;99642.41;;;12.16;100.00
61384;BME280;63511;49.346;8.798;2023-11-21T05:32:29;99641.44;;;12.14;100.00
61384;BME280;63511;49.346;8.798;2023-11-21T05:34:55;99649.81;;;12.13;100.00
61384;BME280;63511;49.346;8.798;2023-11-21T05:37:21;99664.38;;;12.51;100.00
61384;BME280;63511;49.346;8.798;2023-11-21T05:39:48;99647.94;;;12.09;100.00
61384;BME280;63511;49.346;8.798;2023-11-21T05:42:14;99663.31;;;12.12;100.00
61384;BME280;63511;49.346;8.798;2023-11-21T05:44:42;99666.50;;;12.25;100.00
61384;BME280;63511;49.346;8.798;2023-11-21T05:47:09;99661.06;;;12.18;100.00
61384;BME280;63511;49.346;8.798;2023-11-21T05:49:37;99678.91;;;12.37;100.00
61384;BME280;63511;49.346;8.798;2023-11-21T05:52:03;99689.13;;;12.56;100.00
61384;BME280;63511;49.346;8.798;2023-11-21T05:54:30;99679.56;;;12.51;100.00
61384;BME280;63511;49.346;8.798;2023-11-21T05:56:56;99666.38;;;12.22;100.00
61384;BME280;63511;49.346;8.798;2023-11-21T05:59:23;99670.13;;;12.30;100.00
61384;BME280;63511;49.346;8.798;2023-11-21T06:01:50;99668.72;;;12.19;100.00
61384;BME280;63511;49.346;8.798;2023-11-21T06:04:17;99677.94;;;12.17;100.00
61384;BME280;63511;49.346;8.798;2023-11-21T06:06:45;99678.50;;;12.12;100.00
61384;BME280;63511;49.346;8.798;2023-11-21T06:09:11;99685.41;;;12.32;100.00
61384;BME280;63511;49.346;8.798;2023-11-21T06:11:38;99688.31;;;12.40;100.00
61384;BME280;63511;49.346;8.798;2023-11-21T06:14:04;99706.25;;;12.44;100.00
61384;BME280;63511;49.346;8.798;2023-11-21T06:16:33;99696.69;;;12.72;100.00
61384;BME280;63511;49.346;8.798;2023-11-21T06:18:59;99690.56;;;12.51;100.00
61384;BME280;63511;49.346;8.798;2023-11-21T06:21:26;99696.34;;;12.49;100.00
61384;BME280;63511;49.346;8.798;2023-11-21T06:23:54;99707.25;;;12.64;100.00
61384;BME280;63511;49.346;8.798;2023-11-21T06:26:22;99706.66;;;12.52;100.00
61384;BME280;63511;49.346;8.798;2023-11-21T06:28:49;99710.50;;;12.61;100.00
61384;BME280;63511;49.346;8.798;2023-11-21T06:31:16;99703.91;;;12.65;99.84
61384;BME280;63511;49.346;8.798;2023-11-21T06:33:42;99724.72;;;12.93;99.83
61384;BME280;63511;49.346;8.798;2023-11-21T06:36:09;99687.78;;;12.29;100.00
61384;BME280;63511;49.346;8.798;2023-11-21T06:38:36;99713.25;;;12.32;100.00
61384;BME280;63511;49.346;8.798;2023-11-21T06:41:05;99708.13;;;12.30;100.00
61384;BME280;63511;49.346;8.798;2023-11-21T06:43:32;99730.00;;;12.46;100.00
61384;BME280;63511;49.346;8.798;2023-11-21T06:45:58;99721.31;;;12.41;100.00
61384;BME280;63511;49.346;8.798;2023-11-21T06:48:25;99710.53;;;11.95;100.00
61384;BME280;63511;49.346;8.798;2023-11-21T06:50:51;99730.25;;;12.18;100.00
61384;BME280;63511;49.346;8.798;2023-11-21T06:53:18;99739.72;;;12.39;100.00
61384;BME280;63511;49.346;8.798;2023-11-21T06:55:44;99726.84;;;12.34;100.00
61384;BME280;63511;49.346;8.798;2023-11-21T06:58:12;99741.69;;;12.44;100.00
61384;BME280;63511;49.346;8.798;2023-11-21T07:00:39;99739.16;;;12.44;100.00
61384;BME280;63511;49.346;8.798;2023-11-21T07:03:06;99743.97;;;12.38;100.00
61384;BME280;63511;49.346;8.798;2023-11-21T07:05:32;99736.97;;;12.34;100.00
61384;BME280;63511;49.346;8.798;2023-11-21T07:07:59;99741.09;;;12.32;100.00
61384;BME280;63511;49.346;8.798;2023-11-21T07:10:29;99740.63;;;12.23;100.00
61384;BME280;63511;49.346;8.798;2023-11-21T07:12:55;99745.06;;;12.27;100.00
61384;BME280;63511;49.346;8.798;2023-11-21T07:15:23;99755.97;;;12.42;100.00
61384;BME280;63511;49.346;8.798;2023-11-21T07:17:51;99758.63;;;12.45;100.00
61384;BME280;63511;49.346;8.798;2023-11-21T07:20:19;99758.28;;;12.38;100.00
61384;BME280;63511;49.346;8.798;2023-11-21T07:22:46;99774.84;;;12.49;100.00
61384;BME280;63511;49.346;8.798;2023-11-21T07:25:12;99776.28;;;12.44;100.00
61384;BME280;63511;49.346;8.798;2023-11-21T07:27:39;99783.75;;;12.41;100.00
61384;BME280;63511;49.346;8.798;2023-11-21T07:30:06;99776.38;;;12.45;100.00
61384;BME280;63511;49.346;8.798;2023-11-21T07:32:36;99798.28;;;12.61;100.00
61384;BME280;63511;49.346;8.798;2023-11-21T07:35:04;99795.25;;;12.68;100.00
61384;BME280;63511;49.346;8.798;2023-11-21T07:37:33;99790.31;;;12.53;100.00
61384;BME280;63511;49.346;8.798;2023-11-21T07:39:59;99779.88;;;12.47;100.00
61384;BME280;63511;49.346;8.798;2023-11-21T07:42:25;99792.09;;;12.56;100.00
61384;BME280;63511;49.346;8.798;2023-11-21T07:44:52;99798.28;;;12.61;100.00
61384;BME280;63511;49.346;8.798;2023-11-21T07:47:18;99802.47;;;12.60;100.00
61384;BME280;63511;49.346;8.798;2023-11-21T07:49:46;99798.69;;;12.52;100.00
61384;BME280;63511;49.346;8.798;2023-11-21T07:52:12;99806.84;;;12.63;100.00
61384;BME280;63511;49.346;8.798;2023-11-21T07:54:41;99817.00;;;12.81;100.00
61384;BME280;63511;49.346;8.798;2023-11-21T07:57:07;99812.66;;;12.78;100.00
61384;BME280;63511;49.346;8.798;2023-11-21T07:59:34;99804.22;;;12.61;100.00
61384;BME280;63511;49.346;8.798;2023-11-21T08:02:00;99818.25;;;12.89;100.00
61384;BME280;63511;49.346;8.798;2023-11-21T08:04:27;99825.53;;;12.99;100.00
61384;BME280;63511;49.346;8.798;2023-11-21T08:06:55;99819.19;;;12.91;100.00
61384;BME280;63511;49.346;8.798;2023-11-21T08:09:21;99822.75;;;12.94;100.00
61384;BME280;63511;49.346;8.798;2023-11-21T08:11:48;99829.06;;;13.02;100.00
61384;BME280;63511;49.346;8.798;2023-11-21T08:14:15;99812.53;;;12.93;100.00
61384;BME280;63511;49.346;8.798;2023-11-21T08:16:41;99818.41;;;12.92;100.00
61384;BME280;63511;49.346;8.798;2023-11-21T08:19:09;99817.31;;;12.87;100.00
61384;BME280;63511;49.346;8.798;2023-11-21T08:21:36;99835.09;;;13.21;100.00
61384;BME280;63511;49.346;8.798;2023-11-21T08:24:07;99827.03;;;13.29;98.33
61384;BME280;63511;49.346;8.798;2023-11-21T08:26:35;99818.50;;;13.11;100.00
61384;BME280;63511;49.346;8.798;2023-11-21T08:29:02;99825.09;;;13.07;100.00
61384;BME280;63511;49.346;8.798;2023-11-21T08:31:28;99833.69;;;13.27;97.07
61384;BME280;63511;49.346;8.798;2023-11-21T08:33:55;99836.41;;;13.30;99.62
61384;BME280;63511;49.346;8.798;2023-11-21T08:36:21;99846.31;;;13.43;99.56
61384;BME280;63511;49.346;8.798;2023-11-21T08:38:49;99841.97;;;13.58;96.34
61384;BME280;63511;49.346;8.798;2023-11-21T08:41:18;99832.84;;;13.44;99.37
61384;BME280;63511;49.346;8.798;2023-11-21T08:43:47;99843.84;;;13.45;98.92
61384;BME280;63511;49.346;8.798;2023-11-21T08:46:13;99854.03;;;13.63;97.28
61384;BME280;63511;49.346;8.798;2023-11-21T08:48:40;99855.94;;;13.86;93.41
61384;BME280;63511;49.346;8.798;2023-11-21T08:51:09;99822.19;;;13.34;97.53
61384;BME280;63511;49.346;8.798;2023-11-21T08:53:36;99831.53;;;13.35;97.17
61384;BME280;63511;49.346;8.798;2023-11-21T08:56:03;99840.94;;;13.37;96.21
61384;BME280;63511;49.346;8.798;2023-11-21T08:58:31;99840.84;;;13.18;100.00
61384;BME280;63511;49.346;8.798;2023-11-21T09:00:58;99842.69;;;13.21;100.00
61384;BME280;63511;49.346;8.798;2023-11-21T09:03:24;99858.28;;;13.46;100.00
61384;BME280;63511;49.346;8.798;2023-11-21T09:05:51;99856.41;;;13.77;96.11
61384;BME280;63511;49.346;8.798;2023-11-21T09:08:18;99856.59;;;13.64;95.87
61384;BME280;63511;49.346;8.798;2023-11-21T09:10:44;99874.56;;;14.04;92.33
61384;BME280;63511;49.346;8.798;2023-11-21T09:13:12;99872.97;;;14.25;90.30
61384;BME280;63511;49.346;8.798;2023-11-21T09:15:40;99852.03;;;13.92;90.41
61384;BME280;63511;49.346;8.798;2023-11-21T09:18:07;99856.41;;;13.77;94.97
61384;BME280;63511;49.346;8.798;2023-11-21T09:20:33;99880.09;;;14.15;94.57
61384;BME280;63511;49.346;8.798;2023-11-21T09:22:59;99892.31;;;14.39;90.86
61384;BME280;63511;49.346;8.798;2023-11-21T09:25:26;99873.72;;;14.23;90.81
61384;BME280;63511;49.346;8.798;2023-11-21T09:27:53;99856.25;;;14.11;89.35
61384;BME280;63511;49.346;8.798;2023-11-21T09:30:21;99869.25;;;13.99;90.46
61384;BME280;63511;49.346;8.798;2023-11-21T09:32:51;99876.16;;;14.02;91.06
61384;BME280;63511;49.346;8.798;2023-11-21T09:35:17;99851.09;;;13.37;96.96
61384;BME280;63511;49.346;8.798;2023-11-21T09:37:43;99886.63;;;13.90;94.75
61384;BME280;63511;49.346;8.798;2023-11-21T09:40:11;99894.56;;;14.16;92.06
61384;BME280;63511;49.346;8.798;2023-11-21T09:42:40;99881.81;;;13.79;94.47
61384;BME280;63511;49.346;8.798;2023-11-21T09:45:09;99881.47;;;13.53;92.55
61384;BME280;63511;49.346;8.798;2023-11-21T09:47:39;99880.94;;;13.25;93.51
61384;BME280;63511;49.346;8.798;2023-11-21T09:50:08;99897.69;;;13.39;93.55
61384;BME280;63511;49.346;8.798;2023-11-21T09:52:38;99898.44;;;13.54;91.22
61384;BME280;63511;49.346;8.798;2023-11-21T09:55:07;99900.47;;;13.61;88.02
61384;BME280;63511;49.346;8.798;2023-11-21T09:57:38;99918.38;;;13.65;90.23
61384;BME280;63511;49.346;8.798;2023-11-21T10:00:05;99920.97;;;13.84;89.16
61384;BME280;63511;49.346;8.798;2023-11-21T10:02:36;99918.56;;;14.04;88.57
61384;BME280;63511;49.346;8.798;2023-11-21T10:05:04;99898.00;;;13.81;90.59
61384;BME280;63511;49.346;8.798;2023-11-21T10:07:32;99926.09;;;14.21;87.56
61384;BME280;63511;49.346;8.798;2023-11-21T10:10:00;99920.97;;;14.19;86.73
61384;BME280;63511;49.346;8.798;2023-11-21T10:12:28;99919.81;;;14.13;88.84
61384;BME280;63511;49.346;8.798;2023-11-21T10:14:54;99901.13;;;13.93;87.85
61384;BME280;63511;49.346;8.798;2023-11-21T10:17:25;99920.97;;;14.01;91.06
61384;BME280;63511;49.346;8.798;2023-11-21T10:19:55;99913.78;;;14.11;87.98
61384;BME280;63511;49.346;8.798;2023-11-21T10:22:22;99911.13;;;14.08;89.24
61384;BME280;63511;49.346;8.798;2023-11-21T10:24:50;99925.22;;;14.20;87.65
61384;BME280;63511;49.346;8.798;2023-11-21T10:27:17;99915.75;;;14.16;85.39
61384;BME280;63511;49.346;8.798;2023-11-21T10:29:43;99931.00;;;14.35;86.95
61384;BME280;63511;49.346;8.798;2023-11-21T10:32:10;99932.00;;;14.57;84.95
61384;BME280;63511;49.346;8.798;2023-11-21T10:34:38;99922.25;;;14.46;82.58
61384;BME280;63511;49.346;8.798;2023-11-21T10:37:10;99905.00;;;14.22;81.11
61384;BME280;63511;49.346;8.798;2023-11-21T10:39:38;99896.00;;;14.11;81.94
61384;BME280;63511;49.346;8.798;2023-11-21T10:42:07;99891.25;;;13.63;88.84
61384;BME280;63511;49.346;8.798;2023-11-21T10:44:34;99887.44;;;13.72;87.57
61384;BME280;63511;49.346;8.798;2023-11-21T10:47:00;99913.94;;;14.14;83.17
61384;BME280;63511;49.346;8.798;2023-11-21T10:49:27;99891.41;;;13.84;85.21
61384;BME280;63511;49.346;8.798;2023-11-21T10:51:54;99917.28;;;14.13;83.15
61384;BME280;63511;49.346;8.798;2023-11-21T10:54:21;99919.81;;;14.13;83.36
61384;BME280;63511;49.346;8.798;2023-11-21T10:56:49;99912.38;;;13.98;84.77
61384;BME280;63511;49.346;8.798;2023-11-21T10:59:23;99928.31;;;14.13;84.81
61384;BME280;63511;49.346;8.798;2023-11-21T11:01:50;99929.03;;;14.11;87.24
61384;BME280;63511;49.346;8.798;2023-11-21T11:04:16;99940.56;;;14.22;86.04
61384;BME280;63511;49.346;8.798;2023-11-21T11:06:44;99928.44;;;14.16;85.21
61384;BME280;63511;49.346;8.798;2023-11-21T11:09:12;99934.38;;;14.17;86.13
61384;BME280;63511;49.346;8.798;2023-11-21T11:11:39;99932.06;;;14.21;84.89
61384;BME280;63511;49.346;8.798;2023-11-21T11:14:06;99917.16;;;13.92;83.97
61384;BME280;63511;49.346;8.798;2023-11-21T11:16:34;99922.72;;;13.85;84.45
61384;BME280;63511;49.346;8.798;2023-11-21T11:19:02;99927.38;;;13.93;82.50
61384;BME280;63511;49.346;8.798;2023-11-21T11:21:31;99928.47;;;13.98;83.44
61384;BME280;63511;49.346;8.798;2023-11-21T11:24:08;99923.50;;;13.84;83.55
61384;BME280;63511;49.346;8.798;2023-11-21T11:26:42;99936.00;;;13.97;83.28
61384;BME280;63511;49.346;8.798;2023-11-21T11:29:14;99946.09;;;14.13;81.83
61384;BME280;63511;49.346;8.798;2023-11-21T11:31:49;99941.81;;;14.12;82.41
61384;BME280;63511;49.346;8.798;2023-11-21T11:34:23;99955.50;;;14.33;82.93
61384;BME280;63511;49.346;8.798;2023-11-21T11:36:54;99949.47;;;14.31;83.57
61384;BME280;63511;49.346;8.798;2023-11-21T11:39:28;99955.16;;;14.63;81.48
61384;BME280;63511;49.346;8.798;2023-11-21T11:41:55;99936.47;;;14.25;82.04
61384;BME280;63511;49.346;8.798;2023-11-21T11:47:14;99928.22;;;14.12;82.59
61384;BME280;63511;49.346;8.798;2023-11-21T11:49:54;99954.16;;;14.40;81.91
61384;BME280;63511;49.346;8.798;2023-11-21T11:55:02;99922.56;;;13.99;84.23
61384;BME280;63511;49.346;8.798;2023-11-21T11:57:29;99942.59;;;14.11;85.09
61384;BME280;63511;49.346;8.798;2023-11-21T12:00:12;99945.06;;;14.10;85.68
61384;BME280;63511;49.346;8.798;2023-11-21T12:02:43;99929.56;;;13.86;85.33
61384;BME280;63511;49.346;8.798;2023-11-21T12:05:10;99924.03;;;13.77;85.19
61384;BME280;63511;49.346;8.798;2023-11-21T12:07:44;99935.25;;;13.64;85.81
61384;BME280;63511;49.346;8.798;2023-11-21T12:10:13;99938.59;;;13.63;85.33
61384;BME280;63511;49.346;8.798;2023-11-21T12:12:42;99949.78;;;13.67;86.73
61384;BME280;63511;49.346;8.798;2023-11-21T12:15:09;99952.84;;;13.77;86.45
61384;BME280;63511;49.346;8.798;2023-11-21T12:17:35;99951.38;;;13.82;86.11
61384;BME280;63511;49.346;8.798;2023-11-21T12:20:04;99971.63;;;13.98;85.32
61384;BME280;63511;49.346;8.798;2023-11-21T12:22:31;99967.47;;;14.00;84.29
61384;BME280;63511;49.346;8.798;2023-11-21T12:24:57;99953.13;;;13.83;83.60
61384;BME280;63511;49.346;8.798;2023-11-21T12:27:24;99963.06;;;14.14;83.01
61384;BME280;63511;49.346;8.798;2023-11-21T12:29:51;99960.72;;;14.01;83.47
61384;BME280;63511;49.346;8.798;2023-11-21T12:32:17;99970.69;;;14.14;82.93
61384;BME280;63511;49.346;8.798;2023-11-21T12:34:44;99957.81;;;14.11;82.16
61384;BME280;63511;49.346;8.798;2023-11-21T12:37:13;99950.28;;;13.95;80.79
61384;BME280;63511;49.346;8.798;2023-11-21T12:39:39;99981.81;;;14.35;81.68
61384;BME280;63511;49.346;8.798;2023-11-21T12:42:06;99980.72;;;14.30;78.37
61384;BME280;63511;49.346;8.798;2023-11-21T12:44:32;99976.91;;;14.21;77.34
61384;BME280;63511;49.346;8.798;2023-11-21T12:46:59;99976.31;;;14.26;77.55
61384;BME280;63511;49.346;8.798;2023-11-21T12:49:26;99958.34;;;14.04;78.76
61384;BME280;63511;49.346;8.798;2023-11-21T12:51:53;99996.22;;;14.35;76.58
61384;BME280;63511;49.346;8.798;2023-11-21T12:54:21;99976.53;;;14.31;76.41
61384;BME280;63511;49.346;8.798;2023-11-21T12:56:49;100004.78;;;14.55;80.82
61384;BME280;63511;49.346;8.798;2023-11-21T12:59:16;99988.59;;;14.72;76.38